createdAt,value
2019-04-11T00:03:29.919Z,0.65
2019-04-11T00:08:48.553Z,0.44
2019-04-11T00:14:07.436Z,0.34
2019-04-11T00:19:26.077Z,0.29
2019-04-11T00:24:45.202Z,0.13
2019-04-11T00:30:05.956Z,0.13
2019-04-11T00:35:24.536Z,-0.18
2019-04-11T00:40:43.741Z,-0.26
2019-04-11T00:46:02.992Z,-0.52
2019-04-11T00:51:21.800Z,-0.63
2019-04-11T00:56:40.419Z,-0.66
2019-04-11T01:01:58.998Z,-0.71
2019-04-11T01:07:18.529Z,-0.82
2019-04-11T01:12:37.175Z,-0.66
2019-04-11T01:17:55.973Z,-0.91
2019-04-11T01:23:15.149Z,-1.10
2019-04-11T01:28:34.440Z,-0.80
2019-04-11T01:33:53.886Z,-1.03
2019-04-11T01:39:30.058Z,-1.19
2019-04-11T01:44:49.322Z,-0.87
2019-04-11T01:50:08.524Z,-1.20
2019-04-11T01:55:28.245Z,-0.75
2019-04-11T02:00:54.645Z,-1.31
2019-04-11T02:06:13.904Z,-1.35
2019-04-11T02:11:32.424Z,-1.44
2019-04-11T02:16:52.266Z,-1.42
2019-04-11T02:22:15.957Z,-1.46
2019-04-11T02:27:36.237Z,-1.49
2019-04-11T02:32:56.101Z,-1.63
2019-04-11T02:38:16.469Z,-1.66
2019-04-11T02:43:36.501Z,-1.72
2019-04-11T02:48:56.770Z,-1.76
2019-04-11T02:54:17.942Z,-1.95
2019-04-11T02:59:38.758Z,-1.91
2019-04-11T03:04:57.601Z,-2.05
2019-04-11T03:10:16.531Z,-2.12
2019-04-11T03:15:48.490Z,-2.25
2019-04-11T03:21:00.162Z,-2.36
2019-04-11T03:26:16.914Z,-2.42
2019-04-11T03:32:18.054Z,-2.39
2019-04-11T03:42:32.351Z,-2.50
2019-04-11T03:47:51.592Z,-2.59
2019-04-11T03:52:59.487Z,-2.68
2019-04-11T03:58:19.677Z,-2.60
2019-04-11T04:03:39.259Z,-2.54
2019-04-11T04:08:58.460Z,-2.57
2019-04-11T04:14:21.615Z,-2.42
2019-04-11T04:19:43.661Z,-2.45
2019-04-11T04:25:04.299Z,-2.70
2019-04-11T04:30:27.712Z,-2.68
2019-04-11T04:35:51.566Z,-2.75
2019-04-11T04:41:22.457Z,-2.81
2019-04-11T04:46:47.152Z,-2.66
2019-04-11T04:51:55.672Z,-2.89
2019-04-11T04:57:20.189Z,-2.81
2019-04-11T05:02:39.738Z,-2.72
2019-04-11T05:08:00.627Z,-2.69
2019-04-11T05:13:19.511Z,-2.22
2019-04-11T05:18:40.540Z,-1.36
2019-04-11T05:23:59.157Z,0.11
2019-04-11T05:29:17.712Z,1.17
2019-04-11T05:34:37.173Z,2.55
2019-04-11T05:39:56.720Z,3.42
2019-04-11T05:45:20.772Z,4.68
2019-04-11T05:50:36.162Z,5.58
2019-04-11T05:55:55.925Z,5.53
2019-04-11T06:01:16.189Z,6.42
2019-04-11T06:06:51.146Z,7.27
2019-04-11T06:12:14.237Z,7.26
2019-04-11T06:17:32.717Z,7.75
2019-04-11T06:22:53.867Z,7.79
2019-04-11T06:28:14.248Z,9.24
2019-04-11T06:33:34.541Z,8.72
2019-04-11T06:38:54.788Z,7.93
2019-04-11T06:44:31.989Z,8.40
2019-04-11T06:49:53.037Z,9.46
2019-04-11T06:55:16.315Z,9.77
2019-04-11T07:00:35.085Z,8.94
2019-04-11T07:05:53.871Z,7.86
2019-04-11T07:11:14.042Z,9.06
2019-04-11T07:16:34.065Z,7.13
2019-04-11T07:21:56.059Z,9.14
2019-04-11T07:27:14.325Z,8.66
2019-04-11T07:32:34.157Z,7.30
2019-04-11T07:37:53.290Z,7.96
2019-04-11T07:43:13.918Z,9.28
2019-04-11T07:48:33.803Z,8.07
2019-04-11T07:53:52.653Z,8.72
2019-04-11T07:59:15.519Z,8.43
2019-04-11T08:04:45.178Z,10.20
2019-04-11T08:10:22.818Z,10.62
2019-04-11T08:15:59.334Z,10.68
2019-04-11T08:21:26.201Z,9.87
2019-04-11T08:27:03.002Z,9.15
2019-04-11T08:32:25.980Z,8.30
2019-04-11T08:37:49.234Z,10.14
2019-04-11T08:43:09.485Z,8.87
2019-04-11T08:48:29.873Z,9.38
2019-04-11T08:53:59.416Z,9.02
2019-04-11T08:59:37.829Z,9.54
2019-04-11T09:05:16.513Z,9.43
2019-04-11T09:10:52.527Z,9.47
2019-04-11T09:16:15.464Z,10.30
2019-04-11T09:21:42.471Z,9.39
2019-04-11T09:27:20.470Z,9.50
2019-04-11T09:32:56.952Z,9.58
2019-04-11T09:38:18.155Z,9.81
2019-04-11T09:43:38.333Z,10.24
2019-04-11T09:49:04.521Z,10.55
2019-04-11T09:54:24.628Z,9.79
2019-04-11T09:59:45.521Z,10.47
2019-04-11T10:05:07.533Z,8.93
2019-04-11T10:10:33.503Z,8.74
2019-04-11T10:16:09.650Z,9.51
2019-04-11T10:21:31.048Z,8.64
2019-04-11T10:26:54.217Z,9.04
2019-04-11T10:32:14.917Z,9.76
2019-04-11T10:37:35.906Z,9.03
2019-04-11T10:42:54.399Z,9.70
2019-04-11T10:48:13.877Z,9.56
2019-04-11T10:53:33.279Z,9.42
2019-04-11T10:58:53.333Z,10.16
2019-04-11T11:04:13.895Z,10.17
2019-04-11T11:09:35.361Z,9.36
2019-04-11T11:15:07.920Z,9.39
2019-04-11T11:20:48.356Z,9.93
2019-04-11T11:26:02.821Z,9.40
2019-04-11T11:31:24.350Z,9.52
2019-04-11T11:36:54.967Z,9.59
2019-04-11T11:42:30.403Z,9.29
2019-04-11T11:47:51.184Z,9.62
2019-04-11T11:53:28.385Z,10.46
2019-04-11T11:58:55.333Z,9.79
2019-04-11T12:04:19.743Z,8.95
2019-04-11T12:09:56.087Z,9.84
2019-04-11T12:15:22.855Z,9.77
2019-04-11T12:20:51.293Z,10.04
2019-04-11T12:26:13.400Z,11.18
2019-04-11T12:31:35.590Z,10.12
2019-04-11T12:36:55.973Z,9.72
2019-04-11T12:42:16.501Z,9.61
2019-04-11T12:47:38.450Z,9.69
2019-04-11T12:52:58.126Z,9.78
2019-04-11T12:58:26.987Z,9.76
2019-04-11T13:03:49.790Z,9.01
2019-04-11T13:09:13.948Z,9.90
2019-04-11T13:14:39.834Z,10.17
2019-04-11T13:20:09.057Z,9.16
2019-04-11T13:25:34.961Z,9.92
2019-04-11T13:31:01.265Z,10.01
2019-04-11T13:36:21.451Z,9.53
2019-04-11T13:41:41.589Z,9.48
2019-04-11T13:47:17.771Z,9.85
2019-04-11T13:52:40.922Z,10.22
2019-04-11T13:58:04.069Z,9.38
2019-04-11T14:03:30.083Z,9.33
2019-04-11T14:08:50.277Z,9.23
2019-04-11T14:14:13.507Z,10.01
2019-04-11T14:19:41.585Z,9.04
2019-04-11T14:25:04.541Z,9.67
2019-04-11T14:30:36.577Z,9.69
2019-04-11T14:36:02.593Z,9.13
2019-04-11T14:41:29.836Z,8.82
2019-04-11T14:47:02.207Z,9.07
2019-04-11T14:52:38.514Z,9.38
2019-04-11T14:57:59.531Z,9.57
2019-04-11T15:03:28.829Z,8.87
2019-04-11T15:08:58.011Z,9.15
2019-04-11T15:14:18.579Z,9.14
2019-04-11T15:19:37.201Z,8.97
2019-04-11T15:25:13.489Z,8.69
2019-04-11T15:30:33.728Z,8.97
2019-04-11T15:35:57.637Z,8.68
2019-04-11T15:41:14.380Z,8.89
2019-04-11T15:46:34.592Z,9.45
2019-04-11T15:51:54.803Z,8.55
2019-04-11T15:57:15.075Z,8.36
2019-04-11T16:02:53.410Z,8.31
2019-04-11T16:08:15.992Z,8.21
2019-04-11T16:13:36.191Z,8.59
2019-04-11T16:19:02.388Z,8.75
2019-04-11T16:24:34.660Z,8.70
2019-04-11T16:29:57.612Z,8.84
2019-04-11T16:35:38.384Z,8.62
2019-04-11T16:41:15.129Z,8.37
2019-04-11T16:46:38.067Z,8.25
2019-04-11T16:51:56.752Z,8.08
2019-04-11T16:57:16.995Z,8.00
2019-04-11T17:02:35.623Z,7.98
2019-04-11T17:07:58.757Z,7.92
2019-04-11T17:13:17.385Z,8.03
2019-04-11T17:18:36.024Z,7.90
2019-04-11T17:23:54.643Z,7.67
2019-04-11T17:29:13.111Z,7.51
2019-04-11T17:34:32.375Z,7.35
2019-04-11T17:39:51.580Z,7.11
2019-04-11T17:45:10.200Z,6.99
2019-04-11T17:50:28.742Z,6.88
2019-04-11T17:55:47.355Z,6.79
2019-04-11T18:01:07.536Z,6.61
2019-04-11T18:06:26.103Z,6.25
2019-04-11T18:11:44.589Z,6.15
2019-04-11T18:17:04.542Z,6.04
2019-04-11T18:22:23.339Z,5.89
2019-04-11T18:27:41.963Z,5.84
2019-04-11T18:33:00.525Z,5.80
2019-04-11T18:38:19.078Z,5.74
2019-04-11T18:43:37.851Z,5.45
2019-04-11T18:48:56.465Z,5.05
2019-04-11T18:54:15.115Z,5.20
2019-04-11T18:59:34.069Z,5.18
2019-04-11T19:04:53.080Z,4.92
2019-04-11T19:10:14.967Z,4.87
2019-04-11T19:15:32.479Z,4.80
2019-04-11T19:20:51.167Z,4.44
2019-04-11T19:26:09.784Z,4.40
2019-04-11T19:31:28.471Z,4.32
2019-04-11T19:36:47.118Z,4.18
2019-04-11T19:42:08.979Z,4.15
2019-04-11T19:47:26.148Z,3.95
2019-04-11T19:52:45.824Z,3.82
2019-04-11T19:58:05.321Z,3.82
2019-04-11T20:03:24.194Z,3.73
2019-04-11T20:08:43.304Z,4.09
2019-04-11T20:14:02.838Z,3.75
2019-04-11T20:19:21.738Z,3.62
2019-04-11T20:24:40.279Z,3.53
2019-04-11T20:29:59.029Z,3.36
2019-04-11T20:35:28.475Z,3.46
2019-04-11T20:40:39.175Z,3.46
2019-04-11T20:45:58.674Z,3.39
2019-04-11T20:51:17.640Z,3.31
2019-04-11T20:56:40.126Z,3.37
2019-04-11T21:01:57.079Z,3.31
2019-04-11T21:07:15.593Z,3.26
2019-04-11T21:12:37.029Z,3.53
2019-04-11T21:17:56.064Z,3.38
2019-04-11T21:23:24.078Z,3.13
2019-04-11T21:28:35.129Z,3.16
2019-04-11T21:33:54.768Z,2.98
2019-04-11T21:39:13.393Z,3.15
2019-04-11T21:44:35.957Z,3.16
2019-04-11T21:49:52.260Z,2.91
2019-04-11T21:55:15.188Z,3.04
2019-04-11T22:00:43.608Z,3.12
2019-04-11T22:06:02.225Z,2.81
2019-04-11T22:11:20.851Z,2.82
2019-04-11T22:16:44.132Z,2.81
2019-04-11T22:21:59.867Z,2.58
2019-04-11T22:27:22.017Z,2.75
2019-04-11T22:32:40.186Z,2.67
2019-04-11T22:37:59.805Z,2.51
2019-04-11T22:43:24.460Z,2.69
2019-04-11T22:48:39.791Z,2.79
2019-04-11T22:54:00.460Z,2.69
2019-04-11T22:59:19.445Z,2.72
2019-04-11T23:04:38.256Z,2.57
2019-04-11T23:09:58.532Z,2.55
2019-04-11T23:15:17.084Z,2.58
2019-04-11T23:20:35.725Z,2.55
2019-04-11T23:25:54.209Z,2.61
2019-04-11T23:31:12.908Z,2.55
2019-04-11T23:36:31.385Z,2.82
2019-04-11T23:41:50.351Z,2.96
2019-04-11T23:47:08.897Z,2.97
2019-04-11T23:52:27.489Z,2.88
2019-04-11T23:57:46.179Z,3.02
